Time;durP1;ratioP1;P1;durP2;ratioP2;P2;SDS_P1;SDS_P2;PMS_P1;PMS_P2;Temp;Humidity;BMP_temperature;BMP_pressure;BME280_temperature;BME280_humidity;BME280_pressure;Samples;Min_cycle;Max_cycle;Signal;HPM_P1;HPM_P2
2023/05/05 00:01:31;;;;;;;5.90;4.50;;;;;;;6.44;100.00;99827.33;109532;1251;76106;-68
2023/05/05 00:03:58;;;;;;;5.20;4.80;;;;;;;6.43;100.00;99826.40;109530;1251;68802;-67
2023/05/05 00:06:27;;;;;;;5.40;4.80;;;;;;;6.42;100.00;99824.65;109477;1251;74383;-70
2023/05/05 00:08:55;;;;;;;5.70;4.70;;;;;;;6.43;100.00;99825.83;109487;1251;63452;-66
2023/05/05 00:11:21;;;;;;;5.30;4.50;;;;;;;6.44;100.00;99827.89;109559;1251;59103;-65
2023/05/05 00:13:48;;;;;;;6.80;4.30;;;;;;;6.43;100.00;99822.81;109567;1251;72419;-62
2023/05/05 00:16:15;;;;;;;5.20;4.60;;;;;;;6.39;100.00;99818.48;109509;1251;70253;-64
2023/05/05 00:18:43;;;;;;;5.00;4.60;;;;;;;6.36;100.00;99816.82;109511;1251;72488;-64
2023/05/05 00:21:10;;;;;;;6.60;6.00;;;;;;;6.34;100.00;99816.11;109528;1251;63340;-63
2023/05/05 00:23:36;;;;;;;4.90;4.40;;;;;;;6.34;100.00;99818.73;109552;1251;60984;-63
2023/05/05 00:26:03;;;;;;;5.50;5.00;;;;;;;6.35;100.00;99824.15;109471;1252;75082;-63
2023/05/05 00:28:30;;;;;;;4.40;4.00;;;;;;;6.37;100.00;99822.02;109452;1251;70074;-64
2023/05/05 00:30:57;;;;;;;5.30;4.80;;;;;;;6.38;100.00;99829.29;109518;1251;73073;-64
2023/05/05 00:33:24;;;;;;;5.90;5.30;;;;;;;6.39;100.00;99829.02;109599;1251;64184;-64
2023/05/05 00:35:51;;;;;;;6.20;5.20;;;;;;;6.40;100.00;99831.61;109524;1251;60208;-64
2023/05/05 00:38:18;;;;;;;5.50;5.00;;;;;;;6.42;100.00;99827.58;109511;1251;73534;-64
2023/05/05 00:40:45;;;;;;;6.50;5.90;;;;;;;6.41;100.00;99823.60;109574;1251;70039;-64
2023/05/05 00:43:11;;;;;;;6.20;5.60;;;;;;;6.45;100.00;99826.24;109366;1251;73573;-63
2023/05/05 00:45:41;;;;;;;10.10;6.40;;;;;;;6.49;100.00;99824.89;109436;1251;62736;-64
2023/05/05 00:48:09;;;;;;;10.00;6.70;;;;;;;6.55;100.00;99825.80;109348;1251;60726;-64
2023/05/05 00:50:36;;;;;;;7.00;6.30;;;;;;;6.59;100.00;99824.88;109200;1252;74623;-64
2023/05/05 00:53:04;;;;;;;7.00;6.30;;;;;;;6.63;100.00;99824.22;109494;1251;68921;-62
2023/05/05 00:55:32;;;;;;;6.80;6.10;;;;;;;6.66;100.00;99823.74;109373;1251;74132;-63
2023/05/05 00:57:59;;;;;;;6.90;6.20;;;;;;;6.71;100.00;99828.63;109505;1251;63206;-64
2023/05/05 01:00:26;;;;;;;6.10;5.30;;;;;;;6.76;100.00;99826.73;109504;1251;61928;-63
2023/05/05 01:02:54;;;;;;;5.40;4.90;;;;;;;6.79;100.00;99825.93;109526;1251;74476;-63
2023/05/05 01:05:21;;;;;;;6.00;4.70;;;;;;;6.76;100.00;99824.59;109477;1251;69401;-64
2023/05/05 01:08:05;;;;;;;7.00;6.30;;;;;;;6.72;100.00;99820.78;109359;1251;73319;-65
2023/05/05 01:10:37;;;;;;;6.60;6.00;;;;;;;6.68;100.00;99819.91;109357;1252;62821;-63
2023/05/05 01:13:08;;;;;;;6.70;6.10;;;;;;;6.68;100.00;99821.24;109337;1251;61209;-63
2023/05/05 01:15:36;;;;;;;7.40;6.70;;;;;;;6.69;100.00;99821.23;109246;1251;74542;-63
2023/05/05 01:18:22;;;;;;;9.20;7.70;;;;;;;6.70;100.00;99826.07;109320;1253;68572;-64
2023/05/05 01:21:00;;;;;;;7.10;6.50;;;;;;;6.71;100.00;99823.49;109525;1252;74515;-64
2023/05/05 01:23:44;;;;;;;8.10;7.00;;;;;;;6.73;100.00;99821.70;109508;1252;64085;-64
2023/05/05 01:26:36;;;;;;;7.00;6.40;;;;;;;6.76;100.00;99821.29;109490;1251;61214;-65
2023/05/05 01:29:24;;;;;;;7.90;6.50;;;;;;;6.79;100.00;99815.63;109443;1251;74240;-65
2023/05/05 01:31:52;;;;;;;7.50;6.80;;;;;;;6.82;100.00;99810.79;109567;1251;69334;-64
2023/05/05 01:34:25;;;;;;;7.70;6.90;;;;;;;6.84;100.00;99809.90;109368;1251;74813;-64
2023/05/05 01:36:56;;;;;;;6.90;6.20;;;;;;;6.87;100.00;99812.14;109446;1251;58778;-63
2023/05/05 01:39:23;;;;;;;7.40;6.70;;;;;;;6.91;100.00;99814.50;109576;1251;61052;-64
2023/05/05 01:41:50;;;;;;;7.80;7.10;;;;;;;6.95;100.00;99815.34;109470;1251;75509;-64
2023/05/05 01:44:18;;;;;;;7.40;6.70;;;;;;;7.01;100.00;99810.30;109461;1253;70276;-64
2023/05/05 01:46:46;;;;;;;6.50;5.90;;;;;;;7.08;100.00;99807.00;109364;1252;73613;-64
2023/05/05 01:49:13;;;;;;;6.60;6.00;;;;;;;7.14;100.00;99805.61;109513;1251;63824;-62
2023/05/05 01:51:40;;;;;;;6.30;5.50;;;;;;;7.19;100.00;99807.58;109379;1254;60891;-63
2023/05/05 01:54:07;;;;;;;6.90;6.20;;;;;;;7.25;100.00;99805.65;109483;1251;76132;-64
2023/05/05 01:56:34;;;;;;;5.40;4.90;;;;;;;7.31;100.00;99808.38;109534;1251;70283;-63
2023/05/05 01:59:01;;;;;;;6.90;6.30;;;;;;;7.39;100.00;99807.14;109416;1257;74599;-63
2023/05/05 02:01:27;;;;;;;7.10;6.40;;;;;;;7.44;100.00;99805.62;109426;1251;63978;-62
2023/05/05 02:03:57;;;;;;;6.80;6.20;;;;;;;7.44;100.00;99796.73;109573;1251;61491;-63
2023/05/05 02:06:25;;;;;;;6.90;6.30;;;;;;;7.42;100.00;99793.39;109531;1251;73625;-63
2023/05/05 02:08:52;;;;;;;7.20;6.60;;;;;;;7.38;100.00;99792.54;109410;1251;70069;-62
2023/05/05 02:11:20;;;;;;;7.40;6.80;;;;;;;7.34;100.00;99793.68;109536;1251;73412;-63
2023/05/05 02:13:47;;;;;;;7.10;6.40;;;;;;;7.29;100.00;99792.39;109509;1251;62739;-64
2023/05/05 02:16:14;;;;;;;7.00;6.40;;;;;;;7.24;100.00;99790.72;109281;1251;59091;-64
2023/05/05 02:18:41;;;;;;;7.40;6.70;;;;;;;7.19;100.00;99788.34;109524;1251;75301;-65
2023/05/05 02:21:08;;;;;;;7.20;6.50;;;;;;;7.14;100.00;99789.71;109428;1251;68355;-63
2023/05/05 02:23:35;;;;;;;6.60;5.80;;;;;;;7.10;100.00;99788.87;109188;1254;73647;-67
2023/05/05 02:26:08;;;;;;;6.40;5.60;;;;;;;7.05;100.00;99784.37;109305;1253;60426;-64
2023/05/05 02:28:45;;;;;;;6.20;5.60;;;;;;;7.01;100.00;99786.19;109392;1251;61211;-64
2023/05/05 02:31:12;;;;;;;5.80;5.30;;;;;;;6.97;100.00;99792.91;109455;1251;75453;-64
2023/05/05 02:33:39;;;;;;;5.90;5.40;;;;;;;6.94;100.00;99795.61;109454;1251;68301;-63
2023/05/05 02:36:11;;;;;;;5.90;5.40;;;;;;;6.94;100.00;99792.47;109378;1251;73313;-64
2023/05/05 02:38:45;;;;;;;5.80;5.30;;;;;;;6.95;100.00;99791.52;109378;1251;63448;-64
2023/05/05 02:41:15;;;;;;;6.50;5.80;;;;;;;6.95;100.00;99796.23;109276;1252;61486;-64
2023/05/05 02:43:42;;;;;;;6.30;5.70;;;;;;;6.96;100.00;99787.20;109386;1251;75155;-63
2023/05/05 02:46:09;;;;;;;6.20;5.70;;;;;;;6.97;100.00;99787.77;109469;1253;67415;-63
2023/05/05 02:48:36;;;;;;;6.90;5.60;;;;;;;6.98;100.00;99786.98;109548;1251;73659;-63
2023/05/05 02:51:04;;;;;;;6.70;6.00;;;;;;;6.99;100.00;99787.41;109532;1251;63810;-63
2023/05/05 02:53:34;;;;;;;6.90;6.30;;;;;;;6.98;100.00;99787.16;109374;1259;60469;-63
2023/05/05 02:56:19;;;;;;;6.90;6.30;;;;;;;6.97;100.00;99784.23;109445;1256;73749;-63
2023/05/05 02:59:08;;;;;;;10.80;7.60;;;;;;;6.95;100.00;99784.77;109408;1251;68344;-62
2023/05/05 03:01:51;;;;;;;7.30;5.90;;;;;;;6.91;100.00;99786.18;109515;1254;74094;-62
2023/05/05 03:04:27;;;;;;;7.20;6.50;;;;;;;6.88;100.00;99787.02;109346;1256;60889;-63
2023/05/05 03:06:59;;;;;;;7.00;6.30;;;;;;;6.88;100.00;99790.55;109316;1252;59597;-63
2023/05/05 03:09:26;;;;;;;7.70;6.50;;;;;;;6.88;100.00;99791.59;109502;1251;73163;-63
2023/05/05 03:11:59;;;;;;;6.70;6.10;;;;;;;6.87;100.00;99789.73;109366;1251;70247;-63
2023/05/05 03:14:29;;;;;;;8.30;6.20;;;;;;;6.89;100.00;99789.27;109491;1251;72987;-63
2023/05/05 03:16:59;;;;;;;7.10;6.40;;;;;;;6.89;100.00;99789.75;109310;1253;62373;-63
2023/05/05 03:19:26;;;;;;;8.10;7.00;;;;;;;6.88;100.00;99791.65;109511;1251;59991;-64
2023/05/05 03:21:54;;;;;;;8.40;6.30;;;;;;;6.88;100.00;99791.45;109322;1251;73973;-62
2023/05/05 03:24:21;;;;;;;7.10;6.40;;;;;;;6.90;100.00;99787.00;109503;1251;68517;-64
2023/05/05 03:26:57;;;;;;;7.50;6.80;;;;;;;6.96;100.00;99785.89;109463;1251;74655;-64
2023/05/05 03:29:28;;;;;;;7.70;6.90;;;;;;;7.08;100.00;99787.08;109376;1251;64016;-64
2023/05/05 03:31:56;;;;;;;6.90;6.30;;;;;;;7.24;100.00;99787.33;109466;1251;61128;-64
2023/05/05 03:34:24;;;;;;;6.80;6.20;;;;;;;7.41;100.00;99786.67;109559;1253;75269;-64
2023/05/05 03:36:50;;;;;;;6.10;5.50;;;;;;;7.54;100.00;99786.54;109448;1251;68216;-64
2023/05/05 03:39:18;;;;;;;8.30;6.60;;;;;;;7.62;100.00;99785.73;109399;1254;74831;-64
2023/05/05 03:41:45;;;;;;;6.20;5.60;;;;;;;7.70;100.00;99784.21;109491;1254;63187;-64
2023/05/05 03:44:12;;;;;;;6.90;5.90;;;;;;;7.82;100.00;99783.33;109568;1251;61183;-64
2023/05/05 03:46:38;;;;;;;5.90;5.30;;;;;;;7.94;100.00;99783.52;109648;1251;76039;-65
2023/05/05 03:49:08;;;;;;;6.30;5.70;;;;;;;8.12;100.00;99784.44;109519;1251;68951;-64
2023/05/05 03:51:35;;;;;;;7.10;5.60;;;;;;;8.37;100.00;99783.77;109466;1251;74655;-63
2023/05/05 03:54:02;;;;;;;6.10;5.50;;;;;;;8.66;100.00;99782.88;109401;1253;63191;-64
2023/05/05 03:56:29;;;;;;;6.90;4.90;;;;;;;8.97;100.00;99778.73;109399;1251;62183;-64
2023/05/05 03:58:56;;;;;;;5.50;5.00;;;;;;;9.28;100.00;99772.67;109366;1252;75731;-64
2023/05/05 04:01:23;;;;;;;5.60;5.10;;;;;;;9.63;100.00;99767.86;109384;1251;68190;-65
2023/05/05 04:03:50;;;;;;;5.70;5.20;;;;;;;10.03;100.00;99765.34;109514;1251;74370;-64
2023/05/05 04:06:16;;;;;;;5.40;4.90;;;;;;;10.34;100.00;99762.38;109346;1254;61027;-62
2023/05/05 04:08:43;;;;;;;5.80;5.20;;;;;;;10.60;100.00;99765.05;109566;1251;62601;-63
2023/05/05 04:11:10;;;;;;;4.70;4.30;;;;;;;10.91;100.00;99762.92;109607;1251;72773;-64
2023/05/05 04:13:38;;;;;;;4.80;4.40;;;;;;;11.22;100.00;99755.11;109421;1251;70250;-64
2023/05/05 04:16:05;;;;;;;4.60;4.20;;;;;;;11.51;100.00;99758.98;109334;1253;74439;-64
2023/05/05 04:18:31;;;;;;;5.20;4.80;;;;;;;11.81;100.00;99762.70;109583;1253;61440;-63
2023/05/05 04:20:59;;;;;;;4.40;4.00;;;;;;;12.13;100.00;99767.77;109523;1251;60889;-63
2023/05/05 04:23:26;;;;;;;4.00;3.60;;;;;;;12.45;100.00;99769.11;109400;1251;73279;-64
2023/05/05 04:25:53;;;;;;;3.80;3.50;;;;;;;12.75;100.00;99771.66;109564;1251;68864;-64
2023/05/05 04:28:20;;;;;;;6.50;4.00;;;;;;;13.09;100.00;99767.34;109520;1251;74794;-66
2023/05/05 04:30:47;;;;;;;3.90;3.60;;;;;;;13.52;100.00;99759.49;109430;1252;61687;-64
2023/05/05 04:33:14;;;;;;;4.50;4.10;;;;;;;13.96;100.00;99758.08;109557;1251;61363;-64
2023/05/05 04:35:41;;;;;;;3.40;3.20;;;;;;;14.34;100.00;99752.05;109558;1251;75880;-65
2023/05/05 04:38:08;;;;;;;3.60;3.30;;;;;;;14.70;100.00;99743.45;109603;1251;68094;-63
2023/05/05 04:40:40;;;;;;;3.90;3.60;;;;;;;15.06;100.00;99743.02;109356;1251;75042;-64
2023/05/05 04:43:07;;;;;;;3.80;3.50;;;;;;;15.34;100.00;99746.10;109375;1251;62626;-64
2023/05/05 04:45:34;;;;;;;2.90;2.70;;;;;;;15.56;100.00;99748.44;109390;1257;62164;-65
2023/05/05 04:48:03;;;;;;;3.50;2.80;;;;;;;15.72;100.00;99749.20;109582;1251;72671;-65
2023/05/05 04:50:30;;;;;;;3.80;2.40;;;;;;;15.98;100.00;99749.48;109592;1251;69902;-65
2023/05/05 04:52:57;;;;;;;2.60;2.40;;;;;;;16.25;100.00;99755.48;109382;1254;73382;-64
2023/05/05 04:55:24;;;;;;;3.20;2.70;;;;;;;16.55;100.00;99749.75;109370;1255;60459;-64
2023/05/05 04:57:51;;;;;;;2.60;2.40;;;;;;;16.83;100.00;99751.08;109622;1251;60322;-65
2023/05/05 05:00:17;;;;;;;3.70;2.50;;;;;;;17.04;100.00;99751.67;109449;1251;76167;-64
2023/05/05 05:02:44;;;;;;;3.40;2.60;;;;;;;17.26;100.00;99750.33;109521;1253;68543;-64
2023/05/05 05:05:11;;;;;;;2.60;2.40;;;;;;;17.47;99.26;99753.93;109379;1254;74977;-63
2023/05/05 05:07:38;;;;;;;2.50;2.00;;;;;;;17.67;96.64;99753.16;109566;1252;61269;-64
2023/05/05 05:10:05;;;;;;;2.40;2.20;;;;;;;17.95;94.43;99756.50;109381;1254;62284;-64
2023/05/05 05:12:32;;;;;;;2.40;2.20;;;;;;;18.23;90.41;99760.80;109616;1253;75780;-64
2023/05/05 05:14:59;;;;;;;2.30;2.20;;;;;;;18.54;87.47;99757.71;109548;1253;69906;-65
2023/05/05 05:17:26;;;;;;;2.10;1.90;;;;;;;18.87;84.03;99757.86;109368;1253;73952;-65
2023/05/05 05:19:54;;;;;;;3.30;1.90;;;;;;;19.21;79.27;99755.79;109291;1252;60238;-66
2023/05/05 05:22:21;;;;;;;1.80;1.70;;;;;;;19.52;76.15;99755.83;109444;1252;60537;-64
2023/05/05 05:24:48;;;;;;;1.70;1.60;;;;;;;19.83;71.45;99754.53;109377;1254;75188;-64
2023/05/05 05:27:15;;;;;;;1.50;1.40;;;;;;;20.07;67.30;99754.94;109480;1252;70134;-65
2023/05/05 05:29:42;;;;;;;5.90;1.90;;;;;;;20.34;65.42;99755.98;109369;1251;73554;-67
2023/05/05 05:32:09;;;;;;;2.30;1.60;;;;;;;20.72;64.66;99754.77;109611;1252;60867;-64
2023/05/05 05:34:37;;;;;;;2.00;1.90;;;;;;;21.17;60.96;99754.30;109553;1253;61138;-66
2023/05/05 05:37:04;;;;;;;3.50;1.90;;;;;;;21.59;58.45;99755.02;109214;1254;75896;-65
2023/05/05 05:39:31;;;;;;;4.70;1.80;;;;;;;21.98;55.63;99752.28;109222;1254;70000;-65
2023/05/05 05:41:58;;;;;;;2.60;1.90;;;;;;;22.36;52.97;99751.30;109237;1254;73789;-64
2023/05/05 05:44:25;;;;;;;3.10;1.70;;;;;;;22.72;49.91;99754.66;109343;1254;62763;-65
2023/05/05 05:46:52;;;;;;;2.00;1.70;;;;;;;23.01;47.33;99750.05;109335;1252;60427;-65
2023/05/05 05:49:18;;;;;;;2.00;1.80;;;;;;;23.23;44.86;99748.42;109376;1254;75780;-64
2023/05/05 05:51:45;;;;;;;3.70;1.50;;;;;;;23.41;44.40;99748.52;109518;1252;69481;-65
2023/05/05 05:54:12;;;;;;;1.80;1.50;;;;;;;23.69;43.52;99745.06;109520;1253;71812;-65
2023/05/05 05:56:39;;;;;;;1.20;1.10;;;;;;;23.96;42.68;99746.54;109407;1254;61113;-65
2023/05/05 05:59:09;;;;;;;5.90;2.10;;;;;;;24.20;41.90;99752.81;109363;1254;62881;-65
2023/05/05 06:01:36;;;;;;;12.50;2.30;;;;;;;24.55;41.91;99752.27;109502;1253;76153;-65
2023/05/05 06:04:03;;;;;;;2.90;1.50;;;;;;;25.03;40.77;99751.63;109416;1253;69078;-65
2023/05/05 06:06:30;;;;;;;7.50;1.70;;;;;;;25.43;39.55;99749.49;109434;1254;73233;-65
2023/05/05 06:08:57;;;;;;;1.50;1.20;;;;;;;25.73;38.69;99748.31;109536;1253;62649;-66
2023/05/05 06:11:24;;;;;;;2.10;1.50;;;;;;;26.04;37.83;99744.85;109381;1253;59430;-64
2023/05/05 06:13:51;;;;;;;5.60;1.90;;;;;;;26.29;36.82;99746.96;109510;1252;75976;-65
2023/05/05 06:16:18;;;;;;;2.20;1.40;;;;;;;26.49;36.11;99748.30;109439;1254;68195;-66
2023/05/05 06:18:46;;;;;;;1.20;1.10;;;;;;;26.57;35.17;99748.59;109299;1254;72967;-65
2023/05/05 06:21:13;;;;;;;4.20;1.80;;;;;;;26.70;34.95;99748.27;109379;1253;61441;-65
2023/05/05 06:23:40;;;;;;;4.50;1.50;;;;;;;27.00;33.68;99747.04;109336;1253;62099;-65
2023/05/05 06:26:08;;;;;;;1.70;1.10;;;;;;;27.14;32.85;99747.55;109370;1253;73454;-65
2023/05/05 06:28:34;;;;;;;2.70;1.20;;;;;;;27.22;31.97;99748.43;109515;1254;67611;-64
2023/05/05 06:31:01;;;;;;;1.30;1.20;;;;;;;27.45;31.74;99744.30;109513;1256;73222;-65
2023/05/05 06:33:28;;;;;;;1.40;1.20;;;;;;;27.83;31.34;99740.39;109600;1251;61536;-65
2023/05/05 06:35:55;;;;;;;1.70;1.10;;;;;;;28.40;30.34;99734.81;109564;1252;61108;-66
2023/05/05 06:38:21;;;;;;;3.30;1.60;;;;;;;28.85;28.95;99733.52;109587;1253;74636;-67
2023/05/05 06:40:48;;;;;;;1.40;1.30;;;;;;;28.89;28.28;99732.99;109561;1254;70504;-66
2023/05/05 06:43:16;;;;;;;1.20;1.10;;;;;;;29.00;27.97;99728.98;109583;1252;73188;-65
2023/05/05 06:45:46;;;;;;;2.00;1.10;;;;;;;29.20;27.61;99728.45;109324;1254;60404;-65
2023/05/05 06:48:13;;;;;;;2.10;1.40;;;;;;;29.48;27.18;99727.20;109565;1253;61172;-66
2023/05/05 06:50:40;;;;;;;1.30;1.10;;;;;;;29.64;26.26;99727.16;109514;1254;76017;-65
2023/05/05 06:53:06;;;;;;;2.00;1.40;;;;;;;29.80;25.56;99724.92;109511;1254;70185;-65
2023/05/05 06:55:33;;;;;;;2.90;1.00;;;;;;;30.00;25.15;99728.66;109498;1253;73554;-65
2023/05/05 06:58:00;;;;;;;8.10;1.90;;;;;;;30.20;25.05;99724.60;109507;1253;59323;-66
2023/05/05 07:00:27;;;;;;;3.80;1.10;;;;;;;30.62;24.85;99722.20;109541;1254;61459;-66
2023/05/05 07:02:54;;;;;;;1.90;1.00;;;;;;;31.07;23.59;99723.29;109524;1253;75112;-65
2023/05/05 07:05:21;;;;;;;1.60;0.90;;;;;;;31.26;22.92;99723.40;109573;1254;67587;-69
2023/05/05 07:07:54;;;;;;;4.20;1.00;;;;;;;31.49;22.61;99725.22;109532;1254;72389;-65
2023/05/05 07:10:22;;;;;;;2.00;1.80;;;;;;;31.61;21.88;99723.43;109503;1253;60582;-70
2023/05/05 07:12:49;;;;;;;1.20;1.10;;;;;;;31.62;22.13;99729.47;109480;1253;60919;-66
2023/05/05 07:15:16;;;;;;;1.20;1.00;;;;;;;31.68;21.91;99729.52;109537;1253;74212;-66
2023/05/05 07:17:55;;;;;;;2.40;1.20;;;;;;;31.96;22.01;99723.67;109400;1255;69402;-67
2023/05/05 07:20:22;;;;;;;1.40;1.00;;;;;;;32.35;21.33;99729.34;109461;1254;73488;-70
2023/05/05 07:22:49;;;;;;;2.00;1.40;;;;;;;32.54;20.96;99730.52;109543;1252;61059;-67
2023/05/05 07:25:16;;;;;;;3.80;1.00;;;;;;;32.93;20.48;99728.46;109444;1254;62102;-69
2023/05/05 07:27:43;;;;;;;1.80;0.90;;;;;;;33.30;20.07;99727.98;109598;1253;74951;-63
2023/05/05 07:30:10;;;;;;;6.30;1.20;;;;;;;33.47;19.21;99726.39;109529;1251;69093;-66
2023/05/05 07:32:43;;;;;;;1.30;0.90;;;;;;;33.38;19.16;99722.36;109480;1256;74644;-65
2023/05/05 07:35:10;;;;;;;1.30;1.20;;;;;;;33.30;19.27;99724.07;109393;1252;61237;-68
2023/05/05 07:37:36;;;;;;;4.20;1.40;;;;;;;33.30;18.80;99721.92;109402;1254;60941;-68
2023/05/05 07:40:04;;;;;;;1.10;0.80;;;;;;;33.36;18.52;99721.39;109425;1258;74816;-67
2023/05/05 07:42:31;;;;;;;1.30;0.90;;;;;;;33.42;18.37;99715.64;109341;1252;68762;-66
2023/05/05 07:44:58;;;;;;;2.60;1.50;;;;;;;33.61;18.44;99713.48;109432;1252;71618;-67
2023/05/05 07:47:25;;;;;;;2.60;0.80;;;;;;;33.94;17.97;99707.00;109389;1254;62165;-68
2023/05/05 07:49:52;;;;;;;2.50;1.50;;;;;;;34.00;17.60;99711.69;109542;1254;60996;-70
2023/05/05 07:52:19;;;;;;;5.50;1.10;;;;;;;34.14;17.58;99710.55;109470;1257;75988;-67
2023/05/05 07:55:03;;;;;;;1.70;1.00;;;;;;;34.42;17.52;99710.86;109512;1253;69848;-66
2023/05/05 07:57:30;;;;;;;1.90;1.20;;;;;;;34.42;17.21;99712.08;109536;1253;74273;-67
2023/05/05 07:59:57;;;;;;;2.90;1.10;;;;;;;34.34;17.22;99715.48;109488;1251;61509;-68
2023/05/05 08:02:24;;;;;;;12.20;2.20;;;;;;;34.36;17.16;99717.14;109534;1253;62162;-69
2023/05/05 08:04:50;;;;;;;3.10;1.10;;;;;;;34.69;16.98;99716.05;109552;1252;75102;-69
2023/05/05 08:07:17;;;;;;;2.40;1.20;;;;;;;35.04;16.12;99719.21;109541;1253;68952;-67
2023/05/05 08:09:44;;;;;;;4.70;1.20;;;;;;;35.09;16.05;99717.95;109513;1253;75156;-66
2023/05/05 08:12:11;;;;;;;3.50;1.40;;;;;;;35.22;16.31;99716.09;109506;1254;61365;-67
2023/05/05 08:14:39;;;;;;;1.90;1.10;;;;;;;35.62;16.05;99712.73;109463;1253;62768;-67
2023/05/05 08:17:06;;;;;;;3.30;1.40;;;;;;;36.08;15.33;99710.42;109555;1251;75619;-65
2023/05/05 08:19:33;;;;;;;1.30;1.20;;;;;;;36.24;14.43;99710.08;109568;1254;70265;-67
2023/05/05 08:22:00;;;;;;;5.50;1.40;;;;;;;36.19;14.02;99714.05;109547;1253;73957;-65
2023/05/05 08:24:27;;;;;;;1.20;1.10;;;;;;;36.06;13.92;99715.13;109475;1253;61134;-66
2023/05/05 08:26:55;;;;;;;3.50;1.30;;;;;;;35.96;13.62;99710.33;109474;1254;61765;-67
2023/05/05 08:29:22;;;;;;;2.10;1.30;;;;;;;36.03;13.72;99707.91;109532;1254;75850;-64
2023/05/05 08:31:49;;;;;;;3.00;1.20;;;;;;;36.32;13.40;99701.30;109532;1254;66508;-68
2023/05/05 08:34:15;;;;;;;7.00;1.20;;;;;;;36.63;13.33;99699.92;109499;1254;73179;-67
2023/05/05 08:36:42;;;;;;;7.50;1.60;;;;;;;36.79;13.80;99702.45;109485;1253;62148;-68
2023/05/05 08:39:09;;;;;;;2.80;1.20;;;;;;;36.86;14.04;99704.79;109567;1254;60573;-67
2023/05/05 08:41:36;;;;;;;1.90;0.90;;;;;;;36.86;13.06;99699.78;109521;1253;74803;-70
2023/05/05 08:44:03;;;;;;;5.20;1.50;;;;;;;36.78;12.71;99706.69;109511;1252;70684;-66
2023/05/05 08:46:30;;;;;;;1.90;1.10;;;;;;;36.61;12.13;99707.37;109476;1252;75041;-66
2023/05/05 08:48:57;;;;;;;2.10;1.30;;;;;;;36.40;11.98;99704.06;109231;1254;61127;-71
2023/05/05 08:51:24;;;;;;;1.20;1.10;;;;;;;36.33;12.38;99705.70;109311;1253;59853;-67
2023/05/05 08:54:01;;;;;;;1.50;1.10;;;;;;;36.36;12.35;99703.36;109337;1253;73657;-68
2023/05/05 08:56:32;;;;;;;1.40;1.00;;;;;;;36.14;12.42;99706.17;109554;1254;68195;-65
2023/05/05 08:59:00;;;;;;;2.20;1.00;;;;;;;36.06;12.78;99704.73;109490;1254;73337;-68
2023/05/05 09:01:27;;;;;;;1.60;0.90;;;;;;;36.23;12.57;99699.70;109395;1253;62242;-67
2023/05/05 09:03:54;;;;;;;2.70;1.50;;;;;;;36.40;12.40;99693.86;109446;1254;60221;-68
2023/05/05 09:06:22;;;;;;;1.00;0.90;;;;;;;36.51;12.45;99687.61;109338;1253;75374;-69
2023/05/05 09:08:49;;;;;;;1.50;1.20;;;;;;;36.73;12.57;99685.50;109472;1253;68847;-67
2023/05/05 09:11:15;;;;;;;3.50;1.10;;;;;;;36.97;12.52;99689.63;109505;1253;73808;-69
2023/05/05 09:13:42;;;;;;;1.50;0.90;;;;;;;37.18;12.61;99693.02;109475;1252;63136;-72
2023/05/05 09:16:09;;;;;;;1.20;1.00;;;;;;;37.39;12.10;99690.54;109420;1253;227864;-68
2023/05/05 09:18:36;;;;;;;2.10;0.90;;;;;;;37.45;12.03;99691.48;109589;1253;74888;-67
2023/05/05 09:21:23;;;;;;;2.10;0.90;;;;;;;37.42;12.24;99693.59;109565;1254;69706;-70
2023/05/05 09:24:03;;;;;;;1.00;1.00;;;;;;;37.39;12.43;99691.71;109584;1252;74061;-68
2023/05/05 09:26:35;;;;;;;1.00;0.80;;;;;;;37.47;12.61;99685.28;109445;1254;62636;-69
2023/05/05 09:29:02;;;;;;;3.20;1.10;;;;;;;37.54;12.64;99691.23;109400;1254;61227;-70
2023/05/05 09:31:30;;;;;;;0.90;0.90;;;;;;;37.51;12.18;99696.30;109542;1254;75600;-70
2023/05/05 09:33:59;;;;;;;0.70;0.70;;;;;;;37.50;11.84;99690.48;109505;1253;69317;-69
2023/05/05 09:36:48;;;;;;;4.40;1.00;;;;;;;37.74;11.85;99687.48;109315;1252;75064;-72
2023/05/05 09:39:17;;;;;;;1.00;0.90;;;;;;;37.86;11.59;99685.61;109323;1254;62719;-71
2023/05/05 09:41:44;;;;;;;1.80;1.20;;;;;;;37.60;11.86;99683.63;109562;1254;61220;-69
2023/05/05 09:44:11;;;;;;;0.70;0.70;;;;;;;37.69;11.99;99683.03;109484;1253;74624;-69
2023/05/05 09:46:47;;;;;;;0.80;0.80;;;;;;;37.77;11.62;99684.66;109466;1253;67707;-70
2023/05/05 09:49:18;;;;;;;1.70;1.10;;;;;;;37.57;11.63;99684.94;109432;1254;72758;-69
2023/05/05 09:51:45;;;;;;;1.30;0.90;;;;;;;37.58;11.75;99675.60;109437;1254;62250;-67
2023/05/05 09:54:22;;;;;;;2.60;1.00;;;;;;;37.84;11.48;99671.17;109482;1254;62186;-68
2023/05/05 09:56:49;;;;;;;2.60;1.20;;;;;;;38.10;11.50;99666.10;109500;1253;74792;-71
2023/05/05 09:59:16;;;;;;;3.10;1.50;;;;;;;38.48;11.68;99668.27;109501;1253;69391;-75
2023/05/05 10:01:43;;;;;;;1.00;0.90;;;;;;;38.72;11.50;99662.05;109545;1253;75337;-72
2023/05/05 10:04:23;;;;;;;0.90;0.80;;;;;;;38.80;11.53;99661.60;109461;1254;61684;-70
2023/05/05 10:06:50;;;;;;;0.90;0.90;;;;;;;38.68;11.60;99663.18;109519;1253;58837;-71
2023/05/05 10:09:17;;;;;;;0.80;0.80;;;;;;;38.40;11.73;99665.16;109531;1252;73796;-70
2023/05/05 10:11:45;;;;;;;1.30;0.90;;;;;;;37.48;11.77;99664.16;109544;1253;67175;-71
2023/05/05 10:14:13;;;;;;;1.30;1.00;;;;;;;36.47;12.23;99660.79;109532;1252;73622;-70
2023/05/05 10:16:50;;;;;;;10.80;2.00;;;;;;;34.90;12.98;99665.00;109520;1253;61708;-68
2023/05/05 10:19:18;;;;;;;5.70;1.50;;;;;;;33.95;13.80;99667.63;109535;1252;62469;-66
2023/05/05 10:21:47;;;;;;;4.80;1.20;;;;;;;32.71;14.56;99665.59;109530;1254;76154;-70
2023/05/05 10:24:46;;;;;;;1.00;0.90;;;;;;;31.33;15.52;99664.95;109549;1252;70308;-67
2023/05/05 10:27:19;;;;;;;1.20;0.90;;;;;;;29.87;16.43;99670.59;109527;1254;74054;-76
2023/05/05 10:30:06;;;;;;;0.80;0.70;;;;;;;28.83;17.02;99670.70;109521;1251;62704;-73
2023/05/05 10:32:43;;;;;;;1.40;0.90;;;;;;;27.79;18.20;99667.15;109351;1254;62460;-74
2023/05/05 10:35:21;;;;;;;5.20;1.30;;;;;;;27.06;18.76;99662.95;109533;1254;75783;-74
2023/05/05 10:37:48;;;;;;;6.90;1.60;;;;;;;26.45;19.67;99670.27;109426;1254;67084;-74
2023/05/05 10:40:15;;;;;;;1.50;0.90;;;;;;;26.02;20.66;99671.57;109528;1254;73644;-70
2023/05/05 10:42:42;;;;;;;3.40;1.30;;;;;;;25.62;21.02;99669.98;109388;1253;62379;-69
2023/05/05 10:45:09;;;;;;;1.20;1.10;;;;;;;25.19;21.55;99670.70;109356;1254;59234;-71
2023/05/05 10:47:36;;;;;;;2.30;1.20;;;;;;;24.75;21.73;99669.92;109403;1253;72701;-71
2023/05/05 10:50:28;;;;;;;2.20;1.20;;;;;;;24.33;22.10;99672.90;109301;1254;69574;-75
2023/05/05 10:53:31;;;;;;;3.20;1.60;;;;;;;23.88;22.40;99670.02;109295;1254;74781;-69
2023/05/05 10:56:10;;;;;;;5.20;1.40;;;;;;;23.47;22.66;99667.52;109489;1253;61926;-69
2023/05/05 10:58:38;;;;;;;6.50;1.50;;;;;;;23.19;22.88;99661.45;109557;1253;62083;-70
2023/05/05 11:01:42;;;;;;;1.00;1.00;;;;;;;22.92;23.28;99658.13;109602;1251;75792;-70
2023/05/05 11:04:15;;;;;;;1.90;1.10;;;;;;;22.71;23.39;99655.99;109566;1251;70284;-72
2023/05/05 11:07:07;;;;;;;1.60;1.20;;;;;;;22.54;23.72;99654.73;109527;1251;74976;-72
2023/05/05 11:10:09;;;;;;;3.90;1.40;;;;;;;22.40;24.37;99654.40;109517;1254;62092;-74
2023/05/05 11:12:56;;;;;;;1.60;0.90;;;;;;;22.18;24.51;99651.87;109368;1253;60669;-71
2023/05/05 11:15:26;;;;;;;1.20;1.00;;;;;;;21.98;24.84;99651.62;109572;1251;76073;-71
2023/05/05 11:17:56;;;;;;;1.60;1.10;;;;;;;21.91;25.08;99644.77;109563;1251;70142;-73
2023/05/05 11:20:36;;;;;;;1.90;0.90;;;;;;;21.94;25.07;99642.40;109516;1251;73200;-71
2023/05/05 11:23:03;;;;;;;1.70;1.00;;;;;;;21.94;24.95;99644.58;109460;1254;58966;-72
2023/05/05 11:25:34;;;;;;;3.20;1.10;;;;;;;21.94;25.31;99640.55;109619;1251;61292;-69
2023/05/05 11:28:04;;;;;;;2.10;1.30;;;;;;;21.79;25.29;99641.13;109452;1251;74734;-70
2023/05/05 11:30:31;;;;;;;1.70;1.10;;;;;;;21.58;25.69;99639.90;109564;1251;68229;-69
2023/05/05 11:33:29;;;;;;;1.70;1.50;;;;;;;21.44;25.95;99640.08;109480;1251;74150;-70
2023/05/05 11:36:02;;;;;;;6.50;1.50;;;;;;;21.22;26.31;99639.15;109498;1251;62081;-67